Time;durP1;ratioP1;P1;durP2;ratioP2;P2;SDS_P1;SDS_P2;PMS_P1;PMS_P2;Temp;Humidity;BMP_temperature;BMP_pressure;BME280_temperature;BME280_humidity;BME280_pressure;Samples;Min_cycle;Max_cycle;Signal;HPM_P1;HPM_P2
2023/05/19 00:01:13;;;;;;;6.00;2.80;;;6.60;99.90;;;;;;5037039;28;20030;-54
2023/05/19 00:03:52;;;;;;;5.90;2.83;;;6.50;99.90;;;;;;5042739;28;20025;-53
2023/05/19 00:06:23;;;;;;;7.25;3.28;;;6.60;99.90;;;;;;5039268;28;20506;-54
2023/05/19 00:08:50;;;;;;;9.45;3.53;;;6.50;99.90;;;;;;5039622;28;20021;-54
2023/05/19 00:11:16;;;;;;;4.20;3.20;;;6.50;99.90;;;;;;5040280;28;20025;-52
2023/05/19 00:13:47;;;;;;;5.45;3.20;;;6.50;99.90;;;;;;5024608;28;20033;-51
2023/05/19 00:16:13;;;;;;;5.97;3.38;;;6.50;99.90;;;;;;5036281;28;20496;-51
2023/05/19 00:18:39;;;;;;;7.00;3.33;;;6.40;99.90;;;;;;5038499;28;20032;-54
2023/05/19 00:21:05;;;;;;;4.85;2.97;;;6.40;99.90;;;;;;5044165;28;20025;-54
2023/05/19 00:23:30;;;;;;;3.63;2.97;;;6.40;99.90;;;;;;5043386;28;20029;-52
2023/05/19 00:25:56;;;;;;;9.38;3.47;;;6.30;99.90;;;;;;5039505;28;20364;-51
2023/05/19 00:28:21;;;;;;;6.70;3.10;;;6.30;99.90;;;;;;5039164;28;20499;-54
2023/05/19 00:30:47;;;;;;;3.95;3.20;;;6.30;99.90;;;;;;5038214;28;20025;-53
2023/05/19 00:33:12;;;;;;;4.43;3.20;;;6.30;99.90;;;;;;5039521;28;20017;-53
2023/05/19 00:35:39;;;;;;;6.97;3.53;;;6.30;99.90;;;;;;5041848;28;20182;-54
2023/05/19 00:38:05;;;;;;;8.00;3.13;;;6.20;99.90;;;;;;5038506;28;20083;-53
2023/05/19 00:40:34;;;;;;;5.60;3.65;;;6.20;99.90;;;;;;5036753;28;20021;-51
2023/05/19 00:42:59;;;;;;;7.57;3.83;;;6.10;99.90;;;;;;5040106;28;20021;-53
2023/05/19 00:45:25;;;;;;;6.68;3.20;;;6.10;99.90;;;;;;5042654;28;20033;-52
2023/05/19 00:47:50;;;;;;;5.43;3.42;;;6.10;99.90;;;;;;5043051;28;20032;-54
2023/05/19 00:50:16;;;;;;;5.43;3.13;;;6.10;99.90;;;;;;5046750;28;20392;-52
2023/05/19 00:52:41;;;;;;;5.75;3.42;;;6.10;99.90;;;;;;5042189;28;20586;-52
2023/05/19 00:55:08;;;;;;;6.32;3.13;;;6.20;99.90;;;;;;5041453;28;20035;-54
2023/05/19 00:57:34;;;;;;;5.22;3.92;;;6.10;99.90;;;;;;5043363;28;20035;-55
2023/05/19 01:00:00;;;;;;;11.52;3.45;;;6.00;99.90;;;;;;5045040;28;20025;-52
2023/05/19 01:02:28;;;;;;;6.00;3.53;;;6.00;99.90;;;;;;5042732;28;20078;-55
2023/05/19 01:04:56;;;;;;;5.07;3.63;;;6.00;99.90;;;;;;5041306;28;20052;-53
2023/05/19 01:07:22;;;;;;;6.63;3.58;;;6.00;99.90;;;;;;5029312;28;20762;-51
2023/05/19 01:09:48;;;;;;;6.97;3.88;;;5.90;99.90;;;;;;5047669;28;20395;-52
2023/05/19 01:12:14;;;;;;;6.75;4.00;;;6.00;99.90;;;;;;5040625;28;20037;-50
2023/05/19 01:14:41;;;;;;;7.97;3.55;;;6.00;99.90;;;;;;5041070;28;20095;-53
2023/05/19 01:17:15;;;;;;;9.68;3.90;;;5.90;99.90;;;;;;5027505;28;20434;-53
2023/05/19 01:19:45;;;;;;;7.38;3.85;;;5.90;99.90;;;;;;5040721;28;20476;-54
2023/05/19 01:22:32;;;;;;;4.47;3.30;;;5.90;99.90;;;;;;5040818;28;20021;-53
2023/05/19 01:25:18;;;;;;;6.03;3.88;;;5.90;99.90;;;;;;5045084;28;20144;-54
2023/05/19 01:28:02;;;;;;;9.68;4.50;;;5.90;99.90;;;;;;5041367;28;20016;-53
2023/05/19 01:30:33;;;;;;;7.70;4.00;;;5.90;99.90;;;;;;5041570;28;20487;-53
2023/05/19 01:33:03;;;;;;;7.43;3.70;;;5.90;99.90;;;;;;5038944;28;20033;-51
2023/05/19 01:35:31;;;;;;;6.13;4.20;;;5.80;99.90;;;;;;5027641;28;20035;-54
2023/05/19 01:37:59;;;;;;;7.68;4.60;;;5.90;99.90;;;;;;5037336;28;20489;-53
2023/05/19 01:40:26;;;;;;;6.05;4.63;;;5.90;99.90;;;;;;5040832;28;20025;-52
2023/05/19 01:42:54;;;;;;;7.60;4.40;;;5.90;99.90;;;;;;5043474;28;20036;-54
2023/05/19 01:45:20;;;;;;;7.00;4.63;;;5.90;99.90;;;;;;5042152;28;20472;-52
2023/05/19 01:47:48;;;;;;;5.65;4.10;;;6.00;99.90;;;;;;5039750;28;20028;-52
2023/05/19 01:50:13;;;;;;;6.10;4.63;;;5.90;99.90;;;;;;5039897;28;20021;-54
2023/05/19 01:52:39;;;;;;;6.32;4.60;;;6.00;99.90;;;;;;5040745;28;20419;-54
2023/05/19 01:55:05;;;;;;;6.72;4.85;;;5.90;99.90;;;;;;5041077;28;20168;-52
2023/05/19 01:57:54;;;;;;;11.95;4.22;;;6.00;99.90;;;;;;5044583;28;20029;-53
2023/05/19 02:00:38;;;;;;;7.55;4.90;;;5.90;99.90;;;;;;5039699;28;20059;-53
2023/05/19 02:03:33;;;;;;;4.97;4.43;;;5.90;99.90;;;;;;5039536;28;20028;-55
2023/05/19 02:06:02;;;;;;;5.88;4.40;;;5.90;99.90;;;;;;5045621;28;20384;-53
2023/05/19 02:08:47;;;;;;;7.60;4.22;;;5.80;99.90;;;;;;5043732;28;20021;-49
2023/05/19 02:11:26;;;;;;;5.75;3.75;;;5.80;99.90;;;;;;5037976;28;20032;-53
2023/05/19 02:13:55;;;;;;;6.43;4.20;;;5.80;99.90;;;;;;5074831;23;20037;-56
2023/05/19 02:16:26;;;;;;;7.50;4.68;;;5.80;99.90;;;;;;5055659;28;20132;-58
2023/05/19 02:18:52;;;;;;;6.30;4.82;;;5.80;99.90;;;;;;5056970;28;20035;-57
2023/05/19 02:21:18;;;;;;;5.97;3.97;;;5.80;99.90;;;;;;5057125;28;20099;-54
2023/05/19 02:23:44;;;;;;;6.38;4.20;;;5.70;99.90;;;;;;5042896;28;20544;-54
2023/05/19 02:26:09;;;;;;;5.25;4.75;;;5.70;99.90;;;;;;5038797;28;20039;-58
2023/05/19 02:28:35;;;;;;;6.18;4.25;;;5.70;99.90;;;;;;5056841;28;20052;-54
2023/05/19 02:31:01;;;;;;;5.72;4.85;;;5.70;99.90;;;;;;5056639;28;20046;-54
2023/05/19 02:33:29;;;;;;;10.13;4.60;;;5.80;99.90;;;;;;5056448;28;20020;-58
2023/05/19 02:35:55;;;;;;;6.20;4.20;;;5.70;99.90;;;;;;5056875;28;20092;-55
2023/05/19 02:38:21;;;;;;;11.65;5.15;;;5.70;99.90;;;;;;5056572;28;20490;-56
2023/05/19 02:40:46;;;;;;;11.02;5.10;;;5.70;99.90;;;;;;5057194;28;20025;-55
2023/05/19 02:43:12;;;;;;;9.90;5.25;;;5.70;99.90;;;;;;5056493;28;20028;-57
2023/05/19 02:45:37;;;;;;;7.95;5.15;;;5.80;99.90;;;;;;5056730;28;20025;-56
2023/05/19 02:48:03;;;;;;;9.65;5.32;;;5.80;99.90;;;;;;5056403;28;20044;-56
2023/05/19 02:50:29;;;;;;;5.72;4.85;;;5.80;99.90;;;;;;5056931;28;20031;-57
2023/05/19 02:52:54;;;;;;;9.80;4.90;;;5.70;99.90;;;;;;5056496;28;20055;-58
2023/05/19 02:55:20;;;;;;;12.35;5.70;;;5.70;99.90;;;;;;5056454;28;20115;-57
2023/05/19 02:57:45;;;;;;;7.28;5.22;;;5.80;99.90;;;;;;5056228;28;20508;-59
2023/05/19 03:00:11;;;;;;;7.80;4.30;;;5.80;99.90;;;;;;5055754;28;20119;-57
2023/05/19 03:02:38;;;;;;;8.40;5.15;;;5.80;99.90;;;;;;5056714;28;20105;-56
2023/05/19 03:05:04;;;;;;;10.65;5.25;;;5.80;99.90;;;;;;5037878;28;20479;-53
2023/05/19 03:07:29;;;;;;;7.00;5.18;;;5.70;99.90;;;;;;5056542;28;20471;-56
2023/05/19 03:09:55;;;;;;;6.40;4.95;;;5.70;99.90;;;;;;5056770;28;20147;-53
2023/05/19 03:12:21;;;;;;;10.40;5.10;;;5.80;99.90;;;;;;5056064;28;20468;-57
2023/05/19 03:14:46;;;;;;;10.30;4.88;;;5.80;99.90;;;;;;5056316;28;20033;-57
2023/05/19 03:17:12;;;;;;;11.10;5.68;;;5.80;99.90;;;;;;5055749;28;20012;-55
2023/05/19 03:19:38;;;;;;;8.20;4.97;;;5.80;99.90;;;;;;5056049;28;20028;-55
2023/05/19 03:22:03;;;;;;;7.65;4.93;;;5.80;99.90;;;;;;5055649;28;20499;-53
2023/05/19 03:24:29;;;;;;;6.38;4.78;;;5.80;99.90;;;;;;5055196;28;20051;-58
2023/05/19 03:26:55;;;;;;;5.82;4.55;;;5.80;99.90;;;;;;5056130;28;20099;-56
2023/05/19 03:29:20;;;;;;;7.93;5.30;;;5.90;99.90;;;;;;5055412;28;20028;-56
2023/05/19 03:31:46;;;;;;;9.75;4.90;;;5.90;99.90;;;;;;5037502;28;20403;-55
2023/05/19 03:34:11;;;;;;;9.77;5.30;;;5.90;99.90;;;;;;5054813;28;20033;-56
2023/05/19 03:36:40;;;;;;;8.95;4.85;;;5.90;99.90;;;;;;5054996;28;20395;-55
2023/05/19 03:39:05;;;;;;;8.77;5.13;;;5.90;99.90;;;;;;5055421;28;20029;-58
2023/05/19 03:41:31;;;;;;;8.70;6.18;;;5.90;99.90;;;;;;5056643;28;20098;-55
2023/05/19 03:43:57;;;;;;;8.43;4.70;;;6.00;99.90;;;;;;5055679;28;20416;-55
2023/05/19 03:46:22;;;;;;;9.98;5.25;;;6.00;99.90;;;;;;5055484;28;20375;-58
2023/05/19 03:48:48;;;;;;;8.05;5.40;;;6.00;99.90;;;;;;5056200;28;20139;-57
2023/05/19 03:51:14;;;;;;;10.55;5.03;;;6.00;99.90;;;;;;5055063;28;20028;-56
2023/05/19 03:53:40;;;;;;;9.00;5.25;;;6.00;99.90;;;;;;5055156;28;20033;-56
2023/05/19 03:56:06;;;;;;;9.20;5.05;;;6.10;99.90;;;;;;5037277;28;20089;-54
2023/05/19 03:58:32;;;;;;;8.45;4.80;;;6.10;99.90;;;;;;5055254;28;20096;-57
2023/05/19 04:00:57;;;;;;;8.07;5.03;;;6.10;99.90;;;;;;5054498;28;20524;-57
2023/05/19 04:03:24;;;;;;;7.03;4.63;;;6.10;99.90;;;;;;5055080;28;20041;-55
2023/05/19 04:05:51;;;;;;;8.57;4.70;;;6.20;99.90;;;;;;5055111;28;20024;-56
2023/05/19 04:08:16;;;;;;;10.57;4.45;;;6.20;99.90;;;;;;5055978;28;20139;-57
2023/05/19 04:10:42;;;;;;;10.10;4.97;;;6.30;99.90;;;;;;5055748;28;20108;-57
2023/05/19 04:13:07;;;;;;;9.68;4.93;;;6.40;99.90;;;;;;5054529;28;20044;-53
2023/05/19 04:15:33;;;;;;;6.03;4.72;;;6.40;99.90;;;;;;5055047;28;20044;-57
2023/05/19 04:17:58;;;;;;;7.45;4.50;;;6.50;99.90;;;;;;5057019;28;20345;-56
2023/05/19 04:20:24;;;;;;;8.32;4.65;;;6.50;99.90;;;;;;5058528;28;20117;-58
2023/05/19 04:22:49;;;;;;;8.18;3.78;;;6.60;99.90;;;;;;5058852;28;20028;-57
2023/05/19 04:25:15;;;;;;;7.43;4.80;;;6.60;99.90;;;;;;5059385;28;20472;-55
2023/05/19 04:27:41;;;;;;;8.65;4.55;;;6.70;99.90;;;;;;5058811;28;20747;-54
2023/05/19 04:30:07;;;;;;;9.38;5.00;;;6.80;99.90;;;;;;5058901;28;20083;-55
2023/05/19 04:32:32;;;;;;;8.18;4.82;;;6.80;99.90;;;;;;5060554;28;20033;-53
2023/05/19 04:34:58;;;;;;;10.32;4.65;;;6.90;99.90;;;;;;5058176;28;20063;-57
2023/05/19 04:37:25;;;;;;;7.30;4.82;;;6.90;99.90;;;;;;5057740;28;20066;-57
2023/05/19 04:39:51;;;;;;;9.07;4.22;;;7.00;99.90;;;;;;5059120;28;20033;-58
2023/05/19 04:42:20;;;;;;;10.27;4.25;;;7.00;99.90;;;;;;5058903;28;20076;-57
2023/05/19 04:44:47;;;;;;;7.03;4.28;;;7.10;99.90;;;;;;5059341;28;20499;-55
2023/05/19 04:47:13;;;;;;;9.00;4.50;;;7.10;99.90;;;;;;5058154;28;20049;-56
2023/05/19 04:49:39;;;;;;;4.70;3.85;;;7.20;99.90;;;;;;5058797;28;20024;-52
2023/05/19 04:52:09;;;;;;;9.35;3.97;;;7.30;99.90;;;;;;5059047;28;20044;-56
2023/05/19 04:54:36;;;;;;;5.15;3.65;;;7.30;99.90;;;;;;5058359;28;20025;-57
2023/05/19 04:57:02;;;;;;;5.82;3.80;;;7.40;99.90;;;;;;5058771;28;20343;-54
2023/05/19 04:59:27;;;;;;;13.40;4.32;;;7.50;99.90;;;;;;5059318;28;20038;-54
2023/05/19 05:01:54;;;;;;;7.60;3.85;;;7.50;99.90;;;;;;5057567;28;20045;-57
2023/05/19 05:04:20;;;;;;;7.13;4.65;;;7.60;99.90;;;;;;5040231;28;20029;-57
2023/05/19 05:06:47;;;;;;;7.43;4.25;;;7.70;99.90;;;;;;5057934;28;20023;-56
2023/05/19 05:09:14;;;;;;;10.57;4.63;;;7.70;99.90;;;;;;5058183;28;20013;-58
2023/05/19 05:11:40;;;;;;;10.00;4.20;;;7.80;99.90;;;;;;5058086;28;20028;-58
2023/05/19 05:14:06;;;;;;;7.55;3.65;;;7.90;99.90;;;;;;5040234;28;20037;-57
2023/05/19 05:16:32;;;;;;;8.20;4.20;;;7.90;99.90;;;;;;5058503;28;20033;-54
2023/05/19 05:18:59;;;;;;;9.38;4.35;;;8.00;99.90;;;;;;5058155;28;20041;-59
2023/05/19 05:21:25;;;;;;;9.10;3.72;;;8.00;99.90;;;;;;5057996;28;20025;-58
2023/05/19 05:23:52;;;;;;;8.30;3.72;;;8.10;99.90;;;;;;5057331;28;20032;-57
2023/05/19 05:26:18;;;;;;;8.10;4.10;;;8.20;99.90;;;;;;5057800;28;20394;-55
2023/05/19 05:28:44;;;;;;;5.35;3.25;;;8.20;99.90;;;;;;5039466;28;20021;-58
2023/05/19 05:31:10;;;;;;;6.68;3.35;;;8.30;99.90;;;;;;5057004;28;20197;-57
2023/05/19 05:33:37;;;;;;;8.57;3.63;;;8.30;99.90;;;;;;5057961;28;20037;-56
2023/05/19 05:36:03;;;;;;;7.00;3.55;;;8.40;99.90;;;;;;5056756;28;20032;-58
2023/05/19 05:38:29;;;;;;;12.02;4.75;;;8.50;99.90;;;;;;5057602;28;20032;-57
2023/05/19 05:40:55;;;;;;;8.98;4.05;;;8.60;99.90;;;;;;5058371;28;20029;-57
2023/05/19 05:43:22;;;;;;;8.95;3.58;;;8.70;99.90;;;;;;5057690;28;20410;-58
2023/05/19 05:45:48;;;;;;;11.40;4.47;;;8.70;99.90;;;;;;5058123;28;20021;-54
2023/05/19 05:48:14;;;;;;;6.10;3.17;;;8.80;99.90;;;;;;5058143;28;20212;-56
2023/05/19 05:50:42;;;;;;;5.55;2.90;;;8.80;99.90;;;;;;5057491;28;20073;-57
2023/05/19 05:53:09;;;;;;;6.93;3.10;;;8.80;99.90;;;;;;5058195;28;20033;-58
2023/05/19 05:55:35;;;;;;;5.55;3.75;;;8.90;99.90;;;;;;5058432;28;20029;-55
2023/05/19 05:58:01;;;;;;;6.15;4.15;;;9.00;99.90;;;;;;5057062;28;20021;-54
2023/05/19 06:00:27;;;;;;;7.75;3.72;;;9.00;99.90;;;;;;5056927;28;20244;-54
2023/05/19 06:02:53;;;;;;;11.38;4.55;;;9.00;99.90;;;;;;5023119;28;20577;-52
2023/05/19 06:05:18;;;;;;;12.32;4.93;;;9.10;99.90;;;;;;5057419;28;20507;-55
2023/05/19 06:07:44;;;;;;;7.00;3.65;;;9.20;99.90;;;;;;5056258;28;20020;-56
2023/05/19 06:10:10;;;;;;;13.40;4.47;;;9.20;99.90;;;;;;5056619;28;20051;-55
2023/05/19 06:12:39;;;;;;;7.55;3.63;;;9.30;99.90;;;;;;5056061;28;20041;-55
2023/05/19 06:15:05;;;;;;;7.45;3.95;;;9.40;99.90;;;;;;5039300;28;20021;-58
2023/05/19 06:17:33;;;;;;;6.38;3.17;;;9.60;99.90;;;;;;5056367;28;20465;-56
2023/05/19 06:19:58;;;;;;;4.55;3.15;;;9.70;99.90;;;;;;5039152;28;20028;-56
2023/05/19 06:22:24;;;;;;;6.85;3.13;;;9.80;99.90;;;;;;5056143;28;20025;-57
2023/05/19 06:24:50;;;;;;;7.30;2.78;;;10.00;99.90;;;;;;5057369;28;20467;-56
2023/05/19 06:27:15;;;;;;;4.63;2.95;;;10.10;99.90;;;;;;5058215;28;20021;-56
2023/05/19 06:29:41;;;;;;;7.65;3.20;;;10.20;99.90;;;;;;5056649;28;20543;-57
2023/05/19 06:32:06;;;;;;;9.07;3.33;;;10.30;99.90;;;;;;5056066;28;20056;-58
2023/05/19 06:34:32;;;;;;;9.77;3.60;;;10.50;99.90;;;;;;5056539;28;20045;-57
2023/05/19 06:36:58;;;;;;;9.00;3.50;;;10.60;99.90;;;;;;5056372;28;20032;-57
2023/05/19 06:39:23;;;;;;;9.70;3.03;;;10.80;99.90;;;;;;5037622;28;20039;-51
2023/05/19 06:41:49;;;;;;;4.25;2.20;;;11.00;99.90;;;;;;5057097;28;20045;-53
2023/05/19 06:44:15;;;;;;;4.72;2.60;;;11.00;99.90;;;;;;5056124;28;20020;-58
2023/05/19 06:46:40;;;;;;;9.02;3.08;;;11.10;99.90;;;;;;5055357;28;20021;-56
2023/05/19 06:49:06;;;;;;;5.13;2.70;;;11.20;99.90;;;;;;5056103;28;20099;-57
2023/05/19 06:51:31;;;;;;;6.18;2.40;;;11.30;99.90;;;;;;5056230;28;20136;-60
2023/05/19 06:53:57;;;;;;;3.85;2.42;;;11.30;99.90;;;;;;5055994;28;20108;-56
2023/05/19 06:56:22;;;;;;;7.88;2.90;;;11.40;99.90;;;;;;5056004;28;20029;-55
2023/05/19 06:58:48;;;;;;;6.20;2.67;;;11.50;99.90;;;;;;5055877;28;20021;-55
2023/05/19 07:01:13;;;;;;;8.95;2.50;;;11.60;99.90;;;;;;5055575;28;20108;-56
2023/05/19 07:03:39;;;;;;;10.23;3.33;;;11.70;99.90;;;;;;5055701;28;20033;-54
2023/05/19 07:06:05;;;;;;;8.00;2.40;;;12.00;99.90;;;;;;5055708;28;20382;-55
2023/05/19 07:08:30;;;;;;;9.90;3.30;;;12.10;99.90;;;;;;5055369;28;20037;-57
2023/05/19 07:10:56;;;;;;;5.72;2.47;;;12.30;99.90;;;;;;5056714;28;20087;-55
2023/05/19 07:13:21;;;;;;;5.10;2.60;;;12.60;99.90;;;;;;5055882;28;20051;-56
2023/05/19 07:15:51;;;;;;;6.75;2.75;;;12.90;99.90;;;;;;5055872;28;20074;-52
2023/05/19 07:18:16;;;;;;;7.78;2.63;;;13.20;99.90;;;;;;5055833;28;20380;-59
2023/05/19 07:20:42;;;;;;;5.93;2.97;;;13.50;99.90;;;;;;5055572;28;20048;-54
2023/05/19 07:23:08;;;;;;;7.10;2.50;;;13.90;99.90;;;;;;5056212;28;20036;-57
2023/05/19 07:25:33;;;;;;;5.50;2.00;;;14.30;99.90;;;;;;5057697;28;20032;-58
2023/05/19 07:27:59;;;;;;;5.80;2.00;;;14.50;99.90;;;;;;5037070;28;20024;-58
2023/05/19 07:30:27;;;;;;;6.38;2.10;;;14.50;99.90;;;;;;5055365;28;20723;-57
2023/05/19 07:32:53;;;;;;;4.78;2.70;;;14.60;99.90;;;;;;5055162;28;20514;-58
2023/05/19 07:35:21;;;;;;;5.15;2.20;;;14.80;99.90;;;;;;5056710;28;20052;-59
2023/05/19 07:37:47;;;;;;;5.82;2.05;;;15.10;99.90;;;;;;5055215;28;20063;-58
2023/05/19 07:40:13;;;;;;;4.22;2.42;;;15.50;99.90;;;;;;5055620;28;20028;-58
2023/05/19 07:42:39;;;;;;;6.30;2.13;;;15.70;99.90;;;;;;5056109;28;20037;-61
2023/05/19 07:45:05;;;;;;;4.03;2.28;;;15.70;99.90;;;;;;5055473;28;20020;-58
2023/05/19 07:47:31;;;;;;;3.50;2.33;;;15.70;99.90;;;;;;5055290;28;20031;-58
2023/05/19 07:49:57;;;;;;;4.57;1.58;;;15.80;99.90;;;;;;5056074;28;20021;-57
2023/05/19 07:52:22;;;;;;;7.05;1.88;;;16.00;99.90;;;;;;5054954;28;20130;-55
2023/05/19 07:54:48;;;;;;;4.78;2.13;;;16.00;99.90;;;;;;5055224;28;20029;-55
2023/05/19 07:57:13;;;;;;;9.52;2.33;;;16.10;99.90;;;;;;5054772;28;20412;-60
2023/05/19 07:59:39;;;;;;;3.67;1.88;;;16.20;99.90;;;;;;5056181;28;20142;-57
2023/05/19 08:02:05;;;;;;;4.63;2.45;;;16.40;99.90;;;;;;5054691;28;20244;-57
2023/05/19 08:04:30;;;;;;;5.50;1.77;;;16.20;99.20;;;;;;5037367;28;20017;-58
2023/05/19 08:06:56;;;;;;;7.00;1.98;;;16.20;99.20;;;;;;5055162;28;20499;-60
2023/05/19 08:09:21;;;;;;;5.57;2.17;;;16.10;98.70;;;;;;5037156;28;20279;-60
2023/05/19 08:11:48;;;;;;;5.03;1.85;;;16.20;99.30;;;;;;5056322;28;20033;-55
2023/05/19 08:14:14;;;;;;;6.57;2.42;;;16.20;98.70;;;;;;5077428;23;20467;-51
2023/05/19 08:16:41;;;;;;;6.05;2.03;;;16.50;99.10;;;;;;5054542;28;20507;-54
2023/05/19 08:19:08;;;;;;;5.43;2.30;;;16.50;98.20;;;;;;5054670;28;20588;-49
2023/05/19 08:21:34;;;;;;;5.38;1.80;;;16.70;98.70;;;;;;5054683;28;20021;-54
2023/05/19 08:24:00;;;;;;;4.90;1.70;;;17.00;96.30;;;;;;5054654;28;20469;-50
2023/05/19 08:26:27;;;;;;;8.60;2.50;;;17.30;96.20;;;;;;5053008;28;20498;-52
2023/05/19 08:28:53;;;;;;;3.45;1.67;;;17.60;95.60;;;;;;5044164;28;20021;-49
2023/05/19 08:31:19;;;;;;;3.55;2.20;;;18.00;94.80;;;;;;5053737;28;20044;-55
2023/05/19 08:33:45;;;;;;;5.25;1.90;;;18.20;93.80;;;;;;5055159;28;20489;-52
2023/05/19 08:36:10;;;;;;;8.95;2.92;;;18.30;93.80;;;;;;5052434;28;20028;-53
2023/05/19 08:38:36;;;;;;;10.93;1.85;;;18.40;92.90;;;;;;5051587;28;20501;-50
2023/05/19 08:41:02;;;;;;;4.82;1.92;;;18.60;93.10;;;;;;5035768;28;20509;-50
2023/05/19 08:43:28;;;;;;;3.45;1.92;;;18.40;91.30;;;;;;5055050;28;20047;-52
2023/05/19 08:45:54;;;;;;;9.07;2.08;;;18.20;91.30;;;;;;5054522;28;20025;-50
2023/05/19 08:48:21;;;;;;;5.82;2.65;;;17.90;92.60;;;;;;5053337;28;20025;-54
2023/05/19 08:51:11;;;;;;;3.50;1.88;;;17.70;93.20;;;;;;5053505;28;20364;-50
2023/05/19 08:53:39;;;;;;;6.82;1.88;;;17.90;93.60;;;;;;5052953;28;20028;-50
2023/05/19 08:56:13;;;;;;;7.20;2.35;;;17.80;92.50;;;;;;5053893;28;20018;-51
2023/05/19 08:58:42;;;;;;;4.60;2.13;;;18.00;92.80;;;;;;5052110;28;20029;-52
2023/05/19 09:01:11;;;;;;;5.80;1.75;;;18.00;92.50;;;;;;5054280;28;20043;-51
2023/05/19 09:03:42;;;;;;;3.85;2.03;;;18.20;92.90;;;;;;5054062;28;20036;-52
2023/05/19 09:06:07;;;;;;;3.47;2.03;;;18.20;92.10;;;;;;5054940;28;20078;-49
2023/05/19 09:08:33;;;;;;;6.43;2.47;;;17.80;92.40;;;;;;5055745;28;20033;-52
2023/05/19 09:10:59;;;;;;;4.53;2.58;;;17.90;93.30;;;;;;5058296;28;20020;-49
2023/05/19 09:13:25;;;;;;;5.05;2.67;;;18.00;92.60;;;;;;5056525;28;20140;-49
2023/05/19 09:15:52;;;;;;;7.63;2.85;;;18.00;92.60;;;;;;5055835;28;20075;-48
2023/05/19 09:18:17;;;;;;;12.63;3.10;;;17.80;92.00;;;;;;5056957;28;20067;-53
2023/05/19 09:20:44;;;;;;;5.30;2.17;;;17.80;92.80;;;;;;5057214;28;20056;-50
2023/05/19 09:23:14;;;;;;;6.38;2.78;;;17.60;92.90;;;;;;5057685;28;20028;-51
2023/05/19 09:25:48;;;;;;;6.47;3.15;;;17.70;94.60;;;;;;5057483;28;20517;-51
2023/05/19 09:28:13;;;;;;;4.93;2.38;;;17.90;93.90;;;;;;5054666;28;20009;-50
2023/05/19 09:30:39;;;;;;;3.28;2.03;;;18.10;93.20;;;;;;5055864;28;20029;-52
2023/05/19 09:33:08;;;;;;;5.15;2.40;;;18.20;92.90;;;;;;5057810;28;20072;-54
2023/05/19 09:35:35;;;;;;;8.98;2.90;;;18.40;93.00;;;;;;5044243;28;20024;-50
2023/05/19 09:38:00;;;;;;;5.15;2.20;;;18.30;92.50;;;;;;5056382;28;20031;-50
2023/05/19 09:40:30;;;;;;;7.57;2.20;;;18.30;92.80;;;;;;5057211;28;20024;-49
2023/05/19 09:42:56;;;;;;;6.80;2.10;;;18.40;93.00;;;;;;5054802;28;20051;-53
2023/05/19 09:45:22;;;;;;;5.75;2.03;;;18.50;93.10;;;;;;5056615;28;20495;-49
2023/05/19 09:47:47;;;;;;;10.85;3.45;;;18.60;93.20;;;;;;5055639;28;20515;-51
2023/05/19 09:50:13;;;;;;;7.50;2.65;;;18.50;93.80;;;;;;5056454;28;20103;-50
2023/05/19 09:52:43;;;;;;;4.18;2.08;;;18.40;92.30;;;;;;5057744;28;20040;-53
2023/05/19 09:55:10;;;;;;;6.28;2.30;;;18.20;92.60;;;;;;5054905;28;20108;-49
2023/05/19 09:57:37;;;;;;;8.85;2.95;;;18.00;92.50;;;;;;5055646;28;20128;-54
2023/05/19 10:00:13;;;;;;;8.15;2.67;;;18.10;92.30;;;;;;5053339;28;20396;-50
2023/05/19 10:02:45;;;;;;;;;;;17.90;91.80;;;;;;5057444;28;20393;-49
2023/05/19 10:05:16;;;;;;;6.32;2.17;;;17.60;93.40;;;;;;5056398;28;19958;-54
2023/05/19 10:07:48;;;;;;;7.80;2.30;;;17.70;93.40;;;;;;5053561;28;20120;-52
2023/05/19 10:10:14;;;;;;;6.53;2.08;;;17.70;92.40;;;;;;5055083;28;20036;-51
2023/05/19 10:12:41;;;;;;;5.32;2.03;;;17.70;92.30;;;;;;5056626;28;20028;-48
2023/05/19 10:15:11;;;;;;;4.22;1.80;;;17.70;92.10;;;;;;5053933;28;20569;-50
2023/05/19 10:17:39;;;;;;;8.90;3.17;;;17.70;92.40;;;;;;5052056;28;20029;-53
2023/05/19 10:20:13;;;;;;;5.80;2.85;;;17.80;92.80;;;;;;5055180;28;20086;-50
2023/05/19 10:22:40;;;;;;;5.38;2.22;;;17.70;92.50;;;;;;5056015;28;20060;-50
2023/05/19 10:25:07;;;;;;;6.22;2.40;;;17.70;93.30;;;;;;5055209;28;20783;-50
2023/05/19 10:27:35;;;;;;;3.58;1.95;;;17.80;92.40;;;;;;5036345;28;20064;-50
2023/05/19 10:30:11;;;;;;;7.30;2.40;;;17.60;91.90;;;;;;5054793;28;20092;-51
2023/05/19 10:32:39;;;;;;;4.13;1.77;;;17.60;91.90;;;;;;5037515;28;20040;-50
2023/05/19 10:35:42;;;;;;;1.98;1.58;;;17.70;91.40;;;;;;5052451;28;20103;-53
2023/05/19 10:38:18;;;;;;;3.75;1.85;;;17.70;91.70;;;;;;5054900;28;20025;-50
2023/05/19 10:40:52;;;;;;;;;;;17.70;91.70;;;;;;5055758;28;20039;-52
2023/05/19 10:43:31;;;;;;;4.97;2.13;;;17.80;92.10;;;;;;5056379;28;20336;-50
2023/05/19 10:45:57;;;;;;;5.28;2.20;;;17.90;91.70;;;;;;5054214;28;20123;-49
2023/05/19 10:48:23;;;;;;;4.13;2.33;;;17.90;91.20;;;;;;5055545;28;20590;-54
2023/05/19 10:50:54;;;;;;;7.20;2.72;;;17.90;91.00;;;;;;5054508;28;20037;-49
2023/05/19 10:53:22;;;;;;;2.13;1.65;;;17.80;90.30;;;;;;5055802;28;20139;-53
2023/05/19 10:55:54;;;;;;;5.55;2.22;;;17.40;90.30;;;;;;5054687;28;20055;-53
2023/05/19 10:58:42;;;;;;;5.50;1.77;;;17.30;91.10;;;;;;5055199;28;20090;-52
2023/05/19 11:01:19;;;;;;;4.20;1.90;;;17.40;90.50;;;;;;5053607;28;20900;-50
2023/05/19 11:03:47;;;;;;;4.15;1.75;;;17.50;90.30;;;;;;5054891;28;20032;-53
2023/05/19 11:06:20;;;;;;;5.03;2.10;;;17.40;89.10;;;;;;5055851;28;20552;-54
2023/05/19 11:08:49;;;;;;;5.72;1.52;;;17.40;91.00;;;;;;5054425;28;20474;-51
2023/05/19 11:11:15;;;;;;;3.88;1.77;;;17.40;91.20;;;;;;5054800;28;20592;-49
2023/05/19 11:13:50;;;;;;;5.72;2.33;;;17.50;90.50;;;;;;5054949;28;20449;-51
2023/05/19 11:16:19;;;;;;;3.67;1.63;;;17.60;90.40;;;;;;5055743;28;20025;-52
2023/05/19 11:18:49;;;;;;;2.72;1.40;;;17.60;90.40;;;;;;5052492;28;20025;-49
2023/05/19 11:21:15;;;;;;;3.90;1.50;;;17.60;90.60;;;;;;5053551;28;20491;-50
2023/05/19 11:23:40;;;;;;;4.82;1.58;;;17.60;90.40;;;;;;5054656;28;20089;-53
2023/05/19 11:26:09;;;;;;;5.13;1.60;;;17.60;89.80;;;;;;5043757;28;20529;-52
2023/05/19 11:28:36;;;;;;;4.57;1.52;;;17.70;90.70;;;;;;5054075;28;20028;-50
2023/05/19 11:31:06;;;;;;;5.95;1.90;;;17.50;89.90;;;;;;5052764;28;20053;-49
2023/05/19 11:33:32;;;;;;;4.93;1.67;;;17.40;90.70;;;;;;5054790;28;20020;-49
2023/05/19 11:35:58;;;;;;;4.82;1.45;;;17.40;91.20;;;;;;5054462;28;20021;-49
2023/05/19 11:38:26;;;;;;;3.17;1.95;;;17.60;89.60;;;;;;5053903;28;20675;-51
2023/05/19 11:40:53;;;;;;;3.30;1.63;;;17.70;89.70;;;;;;5053516;28;20032;-50
2023/05/19 11:43:22;;;;;;;3.25;1.73;;;17.70;89.40;;;;;;5054989;28;20021;-49
2023/05/19 11:45:47;;;;;;;6.43;1.95;;;17.70;90.20;;;;;;5052569;28;20025;-49
2023/05/19 11:48:14;;;;;;;5.47;1.45;;;17.90;90.60;;;;;;5053849;28;20044;-49
2023/05/19 11:50:42;;;;;;;3.97;1.42;;;18.00;90.70;;;;;;5054840;28;20466;-49
2023/05/19 11:53:12;;;;;;;4.47;2.15;;;18.10;90.20;;;;;;5055022;28;20028;-49
2023/05/19 11:55:42;;;;;;;7.65;2.33;;;18.10;88.70;;;;;;5052718;28;20094;-50
2023/05/19 11:58:07;;;;;;;4.95;2.03;;;18.10;87.50;;;;;;5053001;28;20025;-50
2023/05/19 12:00:44;;;;;;;6.72;1.80;;;18.10;88.10;;;;;;5054642;28;20514;-49
2023/05/19 12:03:10;;;;;;;3.75;1.98;;;18.20;89.90;;;;;;5053946;28;20032;-52
2023/05/19 12:05:38;;;;;;;2.60;1.40;;;18.30;90.10;;;;;;5055151;28;20573;-53
2023/05/19 12:08:05;;;;;;;2.08;1.65;;;18.40;89.90;;;;;;5053263;28;20021;-50
2023/05/19 12:10:32;;;;;;;5.72;2.03;;;18.50;87.50;;;;;;5053614;28;20418;-50
2023/05/19 12:12:58;;;;;;;4.78;1.80;;;18.60;87.60;;;;;;5054314;28;20025;-54
2023/05/19 12:15:24;;;;;;;6.97;1.70;;;18.70;85.90;;;;;;5054377;28;20082;-50
2023/05/19 12:17:55;;;;;;;4.18;1.70;;;18.70;86.30;;;;;;5053610;28;20034;-55
2023/05/19 12:20:21;;;;;;;2.63;1.63;;;18.70;87.60;;;;;;5053507;28;20047;-50
2023/05/19 12:22:47;;;;;;;4.82;1.52;;;18.90;86.80;;;;;;5035593;28;20044;-51
2023/05/19 12:25:14;;;;;;;3.97;1.50;;;19.00;88.10;;;;;;5052886;28;20025;-54
2023/05/19 12:27:42;;;;;;;3.90;1.60;;;18.90;85.90;;;;;;5053355;28;20078;-52
2023/05/19 12:30:09;;;;;;;3.03;2.05;;;18.60;83.10;;;;;;5052907;28;20064;-49
2023/05/19 12:32:37;;;;;;;3.05;1.20;;;18.60;84.40;;;;;;5054555;28;20101;-50
2023/05/19 12:35:04;;;;;;;2.67;1.65;;;18.40;83.00;;;;;;5053309;28;20086;-50
2023/05/19 12:37:35;;;;;;;4.70;1.60;;;18.40;84.80;;;;;;5052901;28;20150;-53
2023/05/19 12:40:02;;;;;;;1.83;1.00;;;18.60;85.80;;;;;;5057387;28;20434;-50
2023/05/19 12:42:33;;;;;;;2.30;1.08;;;18.80;82.00;;;;;;5059551;28;20024;-51
2023/05/19 12:45:01;;;;;;;4.28;1.30;;;18.90;84.10;;;;;;5055764;28;20572;-52
2023/05/19 12:47:34;;;;;;;1.83;1.00;;;19.10;82.90;;;;;;5056697;28;20036;-50
2023/05/19 12:50:08;;;;;;;2.38;1.20;;;19.30;80.90;;;;;;5056037;28;20070;-53
2023/05/19 12:52:50;;;;;;;1.40;0.98;;;19.30;78.20;;;;;;5037483;28;20040;-52